createdAt,value
2023-04-15T00:00:28.439Z,3298.00
2023-04-15T00:01:28.438Z,3289.00
2023-04-15T00:02:28.556Z,3287.00
2023-04-15T00:03:28.585Z,3287.00
2023-04-15T00:04:28.493Z,3277.00
2023-04-15T00:05:28.399Z,3275.00
2023-04-15T00:06:28.453Z,3254.00
2023-04-15T00:07:28.497Z,3264.00
2023-04-15T00:08:28.563Z,3256.00
2023-04-15T00:09:28.598Z,3250.00
2023-04-15T00:10:28.650Z,3250.00
2023-04-15T00:11:28.690Z,3237.00
2023-04-15T00:12:28.736Z,3222.00
2023-04-15T00:13:28.801Z,3231.00
2023-04-15T00:14:28.848Z,3224.00
2023-04-15T00:15:28.876Z,3222.00
2023-04-15T00:16:28.958Z,3216.00
2023-04-15T00:17:28.994Z,3213.00
2023-04-15T00:18:29.026Z,3214.00
2023-04-15T00:19:29.060Z,3201.00
2023-04-15T00:20:29.124Z,3196.00
2023-04-15T00:21:29.184Z,3194.00
2023-04-15T00:22:29.221Z,3193.00
2023-04-15T00:23:29.273Z,3179.00
2023-04-15T00:24:29.340Z,3176.00
2023-04-15T00:25:29.392Z,3170.00
2023-04-15T00:26:29.404Z,3167.00
2023-04-15T00:27:29.479Z,3171.00
2023-04-15T00:28:29.477Z,3171.00
2023-04-15T00:29:29.504Z,3172.00
2023-04-15T00:30:29.456Z,3177.00
2023-04-15T00:31:29.704Z,3187.00
2023-04-15T00:32:29.510Z,3193.00
2023-04-15T00:33:29.446Z,3186.00
2023-04-15T00:34:29.428Z,3196.00
2023-04-15T00:35:29.440Z,3183.00
2023-04-15T00:36:29.428Z,3178.00
2023-04-15T00:37:29.452Z,3189.00
2023-04-15T00:38:29.494Z,3192.00
2023-04-15T00:39:29.554Z,3198.00
2023-04-15T00:40:29.606Z,3189.00
2023-04-15T00:41:29.658Z,3194.00
2023-04-15T00:42:29.707Z,3201.00
2023-04-15T00:43:29.776Z,3191.00
2023-04-15T00:44:29.823Z,3198.00
2023-04-15T00:45:29.959Z,3196.00
2023-04-15T00:46:29.932Z,3201.00
2023-04-15T00:47:30.010Z,3199.00
2023-04-15T00:48:30.037Z,3191.00
2023-04-15T00:49:30.003Z,3192.00
2023-04-15T00:50:30.041Z,3196.00
2023-04-15T00:51:29.989Z,3200.00
2023-04-15T00:52:30.010Z,3206.00
2023-04-15T00:53:30.001Z,3213.00
2023-04-15T00:54:29.965Z,3215.00
2023-04-15T00:55:30.017Z,3213.00
2023-04-15T00:56:29.973Z,3223.00
2023-04-15T00:57:29.943Z,3213.00
2023-04-15T00:58:30.006Z,3223.00
2023-04-15T00:59:30.043Z,3209.00
2023-04-15T01:00:30.096Z,3219.00
2023-04-15T01:01:30.218Z,3211.00
2023-04-15T01:02:30.303Z,3219.00
2023-04-15T01:03:30.282Z,3202.00
2023-04-15T01:04:30.407Z,3216.00
2023-04-15T01:05:30.331Z,3214.00
2023-04-15T01:06:30.386Z,3205.00
2023-04-15T01:07:30.448Z,3207.00
2023-04-15T01:08:30.507Z,3209.00
2023-04-15T01:09:30.562Z,3203.00
2023-04-15T01:10:30.609Z,3210.00
2023-04-15T01:11:30.686Z,3207.00
2023-04-15T01:12:30.703Z,3196.00
2023-04-15T01:13:30.757Z,3208.00
2023-04-15T01:14:30.818Z,3201.00
2023-04-15T01:15:30.858Z,3205.00
2023-04-15T01:16:30.963Z,3216.00
2023-04-15T01:17:31.003Z,3210.00
2023-04-15T01:18:31.029Z,3199.00
2023-04-15T01:19:31.089Z,3202.00
2023-04-15T01:20:31.137Z,3193.00
2023-04-15T01:21:31.189Z,3191.00
2023-04-15T01:22:31.240Z,3191.00
2023-04-15T01:23:31.307Z,3197.00
2023-04-15T01:24:31.368Z,3198.00
2023-04-15T01:25:31.407Z,3193.00
2023-04-15T01:26:31.472Z,3197.00
2023-04-15T01:27:31.524Z,3194.00
2023-04-15T01:28:31.576Z,3191.00
2023-04-15T01:29:31.634Z,3193.00
2023-04-15T01:30:31.688Z,3189.00
2023-04-15T01:31:31.823Z,3184.00
2023-04-15T01:32:31.838Z,3183.00
2023-04-15T01:33:31.876Z,3188.00
2023-04-15T01:34:34.284Z,3178.00
2023-04-15T01:35:31.916Z,3194.00
2023-04-15T01:36:31.899Z,3202.00
2023-04-15T01:37:31.907Z,3187.00
2023-04-15T01:38:31.902Z,3182.00
2023-04-15T01:39:31.907Z,3179.00
2023-04-15T01:40:31.902Z,3182.00
2023-04-15T01:41:31.901Z,3180.00
2023-04-15T01:42:31.910Z,3178.00
2023-04-15T01:43:31.892Z,3186.00
2023-04-15T01:44:31.887Z,3179.00
2023-04-15T01:45:31.898Z,3178.00
2023-04-15T01:46:31.923Z,3163.00
2023-04-15T01:47:31.964Z,3165.00
2023-04-15T01:48:31.905Z,3169.00
2023-04-15T01:49:31.891Z,3177.00
2023-04-15T01:50:31.864Z,3176.00
2023-04-15T01:51:31.886Z,3157.00
2023-04-15T01:52:31.867Z,3181.00
2023-04-15T01:53:31.866Z,3176.00
2023-04-15T01:54:31.863Z,3177.00
2023-04-15T01:55:31.869Z,3173.00
2023-04-15T01:56:31.848Z,3167.00
2023-04-15T01:57:31.843Z,3163.00
2023-04-15T01:58:31.815Z,3171.00
2023-04-15T01:59:31.835Z,3158.00
2023-04-15T02:00:31.811Z,3167.00
2023-04-15T02:01:31.871Z,3150.00
2023-04-15T02:02:31.946Z,3155.00
2023-04-15T02:03:31.923Z,3162.00
2023-04-15T02:04:31.798Z,3152.00
2023-04-15T02:05:31.857Z,3153.00
2023-04-15T02:06:31.923Z,3152.00
2023-04-15T02:07:31.965Z,3156.00
2023-04-15T02:08:32.026Z,3156.00
2023-04-15T02:09:32.090Z,3155.00
2023-04-15T02:10:32.151Z,3145.00
2023-04-15T02:11:32.224Z,3145.00
2023-04-15T02:12:32.238Z,3148.00
2023-04-15T02:13:32.283Z,3154.00
2023-04-15T02:14:32.356Z,3148.00
2023-04-15T02:15:32.399Z,3146.00
2023-04-15T02:16:32.544Z,3134.00
2023-04-15T02:17:32.603Z,3142.00
2023-04-15T02:18:32.569Z,3140.00
2023-04-15T02:19:32.631Z,3147.00
2023-04-15T02:20:32.683Z,3134.00
2023-04-15T02:21:32.736Z,3143.00
2023-04-15T02:22:32.882Z,3135.00
2023-04-15T02:23:32.858Z,3138.00
2023-04-15T02:24:32.911Z,3137.00
2023-04-15T02:25:33.005Z,3129.00
2023-04-15T02:26:33.015Z,3126.00
2023-04-15T02:27:33.089Z,3135.00
2023-04-15T02:28:33.121Z,3130.00
2023-04-15T02:29:33.172Z,3124.00
2023-04-15T02:30:33.229Z,3127.00
2023-04-15T02:31:33.289Z,3127.00
2023-04-15T02:32:33.340Z,3131.00
2023-04-15T02:33:33.400Z,3119.00
2023-04-15T02:34:33.434Z,3125.00
2023-04-15T02:35:33.475Z,3111.00
2023-04-15T02:36:33.528Z,3113.00
2023-04-15T02:37:33.576Z,3096.00
2023-04-15T02:38:33.646Z,3085.00
2023-04-15T02:39:33.723Z,3050.00
2023-04-15T02:40:33.733Z,3014.00
2023-04-15T02:41:33.825Z,2965.00
2023-04-15T02:42:33.860Z,2917.00
2023-04-15T02:43:33.930Z,2866.00
2023-04-15T02:44:34.015Z,2814.00
2023-04-15T02:45:34.047Z,2758.00
2023-04-15T02:46:34.160Z,2688.00
2023-04-15T02:47:34.128Z,2662.00
2023-04-15T02:48:34.107Z,2611.00
2023-04-15T02:49:34.168Z,2569.00
2023-04-15T02:50:34.117Z,2516.00
2023-04-15T02:51:34.660Z,2483.00
2023-04-15T02:52:34.241Z,2465.00
2023-04-15T02:53:34.136Z,2419.00
2023-04-15T02:54:34.135Z,2408.00
2023-04-15T02:55:34.227Z,2375.00
2023-04-15T02:56:34.119Z,2362.00
2023-04-15T02:57:34.171Z,2329.00
2023-04-15T02:58:34.162Z,2294.00
2023-04-15T02:59:34.167Z,2255.00
2023-04-15T03:00:34.198Z,2235.00
2023-04-15T03:01:34.210Z,2208.00
2023-04-15T03:02:34.242Z,2172.00
2023-04-15T03:03:34.270Z,2144.00
2023-04-15T03:04:34.237Z,2134.00
2023-04-15T03:05:34.304Z,2113.00
2023-04-15T03:06:34.292Z,2091.00
2023-04-15T03:07:34.289Z,2098.00
2023-04-15T03:08:34.345Z,2076.00
2023-04-15T03:09:34.341Z,2059.00
2023-04-15T03:10:34.385Z,2039.00
2023-04-15T03:11:36.060Z,2013.00
2023-04-15T03:12:34.426Z,2013.00
2023-04-15T03:13:34.481Z,1980.00
2023-04-15T03:14:34.415Z,1975.00
2023-04-15T03:15:34.436Z,1949.00
2023-04-15T03:16:34.519Z,1926.00
2023-04-15T03:17:34.452Z,1908.00
2023-04-15T03:18:34.445Z,1904.00
2023-04-15T03:19:34.413Z,1874.00
2023-04-15T03:20:34.459Z,1867.00
2023-04-15T03:21:34.409Z,1838.00
2023-04-15T03:22:34.439Z,1845.00
2023-04-15T03:23:34.428Z,1813.00
2023-04-15T03:24:34.456Z,1828.00
2023-04-15T03:25:34.477Z,1841.00
2023-04-15T03:26:34.488Z,1874.00
2023-04-15T03:27:34.460Z,1903.00
2023-04-15T03:28:34.455Z,1923.00
2023-04-15T03:29:34.470Z,1943.00
2023-04-15T03:30:34.459Z,1969.00
2023-04-15T03:31:34.484Z,1992.00
2023-04-15T03:32:34.473Z,1992.00
2023-04-15T03:33:34.461Z,2009.00
2023-04-15T03:34:34.465Z,2039.00
2023-04-15T03:35:34.665Z,2048.00
2023-04-15T03:36:34.486Z,2075.00
2023-04-15T03:37:34.471Z,2090.00
2023-04-15T03:38:34.483Z,2106.00
2023-04-15T03:39:34.469Z,2117.00
2023-04-15T03:40:34.470Z,2142.00
2023-04-15T03:41:34.506Z,2158.00
2023-04-15T03:42:34.482Z,2165.00
2023-04-15T03:43:34.505Z,2166.00
2023-04-15T03:44:34.484Z,2172.00
2023-04-15T03:45:34.487Z,2184.00
2023-04-15T03:46:34.505Z,2205.00
2023-04-15T03:47:34.534Z,2236.00
2023-04-15T03:48:34.482Z,2252.00
2023-04-15T03:49:34.528Z,2264.00
2023-04-15T03:50:34.529Z,2267.00
2023-04-15T03:51:34.485Z,2288.00
2023-04-15T03:52:34.452Z,2289.00
2023-04-15T03:53:35.178Z,2298.00
2023-04-15T03:54:34.466Z,2302.00
2023-04-15T03:55:34.525Z,2307.00
2023-04-15T03:56:34.458Z,2307.00
2023-04-15T03:57:34.460Z,2311.00
2023-04-15T03:58:34.460Z,2310.00
2023-04-15T03:59:34.464Z,2326.00
2023-04-15T04:00:34.478Z,2327.00
2023-04-15T04:01:34.591Z,2320.00
2023-04-15T04:02:34.549Z,2334.00
2023-04-15T04:03:35.324Z,2343.00
2023-04-15T04:04:34.552Z,2332.00
2023-04-15T04:05:34.557Z,2339.00
2023-04-15T04:06:34.579Z,2347.00
2023-04-15T04:07:34.607Z,2345.00
2023-04-15T04:08:34.658Z,2359.00
2023-04-15T04:09:34.644Z,2364.00
2023-04-15T04:10:34.690Z,2366.00
2023-04-15T04:11:34.695Z,2368.00
2023-04-15T04:12:34.754Z,2312.00
2023-04-15T04:13:34.759Z,2284.00
2023-04-15T04:14:34.756Z,2221.00
2023-04-15T04:15:34.787Z,2174.00
2023-04-15T04:16:34.820Z,2150.00
2023-04-15T04:17:34.789Z,2093.00
2023-04-15T04:18:34.766Z,2075.00
2023-04-15T04:19:34.774Z,1996.00
2023-04-15T04:20:34.770Z,1953.00
2023-04-15T04:21:34.775Z,1912.00
2023-04-15T04:22:34.785Z,1873.00
2023-04-15T04:23:34.859Z,1830.00
2023-04-15T04:24:34.779Z,1803.00
2023-04-15T04:25:34.814Z,1783.00
2023-04-15T04:26:34.808Z,1773.00
2023-04-15T04:27:34.813Z,1766.00
2023-04-15T04:28:34.821Z,1734.00
2023-04-15T04:29:34.817Z,1738.00
2023-04-15T04:30:34.819Z,1701.00
2023-04-15T04:31:34.840Z,1679.00
2023-04-15T04:32:34.870Z,1663.00
2023-04-15T04:33:34.828Z,1643.00
2023-04-15T04:34:34.869Z,1618.00
2023-04-15T04:35:34.870Z,1595.00
2023-04-15T04:36:34.865Z,1583.00
2023-04-15T04:37:34.883Z,1534.00
2023-04-15T04:38:34.869Z,1521.00
2023-04-15T04:39:34.875Z,1500.00
2023-04-15T04:40:34.896Z,1478.00
2023-04-15T04:41:34.912Z,1444.00
2023-04-15T04:42:35.442Z,1432.00
2023-04-15T04:43:34.904Z,1422.00
2023-04-15T04:44:34.911Z,1405.00
2023-04-15T04:45:34.945Z,1385.00
2023-04-15T04:46:34.950Z,1364.00
2023-04-15T04:47:35.063Z,1359.00
2023-04-15T04:48:35.047Z,1378.00
2023-04-15T04:49:35.083Z,1339.00
2023-04-15T04:50:35.152Z,1312.00
2023-04-15T04:51:35.201Z,1314.00
2023-04-15T04:52:35.265Z,1309.00
2023-04-15T04:53:35.305Z,1314.00
2023-04-15T04:54:35.334Z,1322.00
2023-04-15T04:55:35.399Z,1300.00
2023-04-15T04:56:35.434Z,1295.00
2023-04-15T04:57:35.507Z,1309.00
2023-04-15T04:58:35.554Z,1281.00
2023-04-15T04:59:35.571Z,1273.00
2023-04-15T05:00:35.653Z,1264.00
2023-04-15T05:01:35.751Z,1253.00
2023-04-15T05:02:35.826Z,1240.00
2023-04-15T05:03:36.051Z,1245.00
2023-04-15T05:04:35.861Z,1267.00
2023-04-15T05:05:35.900Z,1251.00
2023-04-15T05:06:35.974Z,1255.00
2023-04-15T05:07:36.003Z,1270.00
2023-04-15T05:08:36.065Z,1278.00
2023-04-15T05:09:36.115Z,1285.00
2023-04-15T05:10:36.174Z,1297.00
2023-04-15T05:11:36.246Z,1293.00
2023-04-15T05:12:36.278Z,1292.00
2023-04-15T05:13:36.350Z,1307.00
2023-04-15T05:14:36.396Z,1324.00
2023-04-15T05:15:36.460Z,1329.00
2023-04-15T05:16:36.552Z,1348.00
2023-04-15T05:17:36.619Z,1354.00
2023-04-15T05:18:36.643Z,1360.00
2023-04-15T05:19:36.707Z,1376.00
2023-04-15T05:20:36.792Z,1360.00
2023-04-15T05:21:38.996Z,1357.00
2023-04-15T05:22:36.856Z,1375.00
2023-04-15T05:23:36.820Z,1375.00
2023-04-15T05:24:36.853Z,1390.00
2023-04-15T05:25:36.857Z,1389.00
2023-04-15T05:26:37.220Z,1371.00
2023-04-15T05:27:36.878Z,1367.00
2023-04-15T05:28:36.860Z,1359.00
2023-04-15T05:29:36.870Z,1372.00
2023-04-15T05:30:36.859Z,1396.00
2023-04-15T05:31:36.934Z,1379.00
2023-04-15T05:32:36.896Z,1382.00
2023-04-15T05:33:36.881Z,1372.00
2023-04-15T05:34:36.882Z,1372.00
2023-04-15T05:35:36.902Z,1373.00
2023-04-15T05:36:36.912Z,1373.00
2023-04-15T05:37:36.904Z,1336.00
2023-04-15T05:38:36.910Z,1332.00
2023-04-15T05:39:36.923Z,1317.00
2023-04-15T05:40:36.919Z,1311.00
2023-04-15T05:41:36.920Z,1308.00
2023-04-15T05:42:36.951Z,1290.00
2023-04-15T05:43:37.030Z,1290.00
2023-04-15T05:44:36.956Z,1284.00
2023-04-15T05:45:36.967Z,1272.00
2023-04-15T05:46:37.228Z,1249.00
2023-04-15T05:47:37.116Z,1231.00
2023-04-15T05:48:37.172Z,1224.00
2023-04-15T05:49:38.220Z,1236.00
2023-04-15T05:50:37.281Z,1207.00
2023-04-15T05:51:37.350Z,1202.00
2023-04-15T05:52:37.408Z,1168.00
2023-04-15T05:53:37.477Z,1179.00
2023-04-15T05:54:37.532Z,1164.00
2023-04-15T05:55:37.585Z,1141.00
2023-04-15T05:56:37.593Z,1113.00
2023-04-15T05:57:37.599Z,1093.00
2023-04-15T05:58:37.592Z,1045.00
2023-04-15T05:59:37.589Z,1020.00
2023-04-15T06:00:37.600Z,984.00
2023-04-15T06:01:37.617Z,958.00
2023-04-15T06:02:37.858Z,959.00
2023-04-15T06:03:37.837Z,940.00
2023-04-15T06:04:37.756Z,925.00
2023-04-15T06:05:37.631Z,926.00
2023-04-15T06:06:37.644Z,924.00
2023-04-15T06:07:37.695Z,916.00
2023-04-15T06:08:37.753Z,925.00
2023-04-15T06:09:37.816Z,927.00
2023-04-15T06:10:37.887Z,934.00
2023-04-15T06:11:37.959Z,937.00
2023-04-15T06:12:38.003Z,950.00
2023-04-15T06:13:38.064Z,931.00
2023-04-15T06:14:38.103Z,937.00
2023-04-15T06:15:38.169Z,933.00
2023-04-15T06:16:38.348Z,926.00
2023-04-15T06:17:38.296Z,946.00
2023-04-15T06:18:38.340Z,928.00
2023-04-15T06:19:38.376Z,938.00
2023-04-15T06:20:38.444Z,938.00
2023-04-15T06:21:38.529Z,927.00
2023-04-15T06:22:38.537Z,921.00
2023-04-15T06:23:38.593Z,917.00
2023-04-15T06:24:38.660Z,916.00
2023-04-15T06:25:38.725Z,920.00
2023-04-15T06:26:38.786Z,934.00
2023-04-15T06:27:38.826Z,935.00
2023-04-15T06:28:38.901Z,913.00
2023-04-15T06:29:38.939Z,929.00
2023-04-15T06:30:39.008Z,916.00
2023-04-15T06:31:39.208Z,917.00
2023-04-15T06:32:39.169Z,940.00
2023-04-15T06:33:39.178Z,912.00
2023-04-15T06:34:39.247Z,897.00
2023-04-15T06:35:39.352Z,892.00
2023-04-15T06:36:39.381Z,873.00
2023-04-15T06:37:39.430Z,867.00
2023-04-15T06:38:39.499Z,841.00
2023-04-15T06:39:39.561Z,817.00
2023-04-15T06:40:39.650Z,790.00
2023-04-15T06:41:39.717Z,775.00
2023-04-15T06:42:39.750Z,754.00
2023-04-15T06:43:39.804Z,714.00
2023-04-15T06:44:39.853Z,687.00
2023-04-15T06:45:39.922Z,664.00
2023-04-15T06:46:39.996Z,661.00
2023-04-15T06:47:40.072Z,653.00
2023-04-15T06:48:40.083Z,637.00
2023-04-15T06:49:40.151Z,622.00
2023-04-15T06:50:40.190Z,610.00
2023-04-15T06:51:40.263Z,591.00
2023-04-15T06:52:40.309Z,589.00
2023-04-15T06:53:40.299Z,583.00
2023-04-15T06:54:40.324Z,572.00
2023-04-15T06:55:40.312Z,561.00
2023-04-15T06:56:40.377Z,547.00
2023-04-15T06:57:40.334Z,538.00
2023-04-15T06:58:40.346Z,531.00
2023-04-15T06:59:40.355Z,520.00
2023-04-15T07:00:40.506Z,500.00
2023-04-15T07:01:40.388Z,503.00
2023-04-15T07:02:40.500Z,503.00
2023-04-15T07:03:40.323Z,504.00
2023-04-15T07:04:40.531Z,489.00
2023-04-15T07:05:40.334Z,486.00
2023-04-15T07:06:40.326Z,462.00
2023-04-15T07:07:40.329Z,500.00
2023-04-15T07:08:40.334Z,505.00
2023-04-15T07:09:40.336Z,500.00
2023-04-15T07:10:40.334Z,503.00
2023-04-15T07:11:40.362Z,512.00
2023-04-15T07:12:40.354Z,546.00
2023-04-15T07:13:40.376Z,573.00
2023-04-15T07:14:40.413Z,590.00
2023-04-15T07:15:40.438Z,626.00
2023-04-15T07:16:40.496Z,656.00
2023-04-15T07:17:40.514Z,704.00
2023-04-15T07:18:40.503Z,757.00
2023-04-15T07:19:40.528Z,828.00
2023-04-15T07:20:40.568Z,869.00
2023-04-15T07:21:41.905Z,918.00
2023-04-15T07:22:40.604Z,971.00
2023-04-15T07:23:40.632Z,1005.00
2023-04-15T07:24:40.614Z,1051.00
2023-04-15T07:25:40.614Z,1053.00
2023-04-15T07:26:40.634Z,1066.00
2023-04-15T07:27:40.618Z,1104.00
2023-04-15T07:28:40.593Z,1167.00
2023-04-15T07:29:40.590Z,1291.00
2023-04-15T07:30:40.603Z,1336.00
2023-04-15T07:31:40.629Z,1370.00
2023-04-15T07:32:40.660Z,1416.00
2023-04-15T07:33:40.601Z,1425.00
2023-04-15T07:34:40.567Z,1457.00
2023-04-15T07:35:40.571Z,1491.00
2023-04-15T07:36:40.576Z,1509.00
2023-04-15T07:37:40.578Z,1533.00
2023-04-15T07:38:40.549Z,1563.00
2023-04-15T07:39:40.548Z,1591.00
2023-04-15T07:40:40.563Z,1624.00
2023-04-15T07:41:40.552Z,1644.00
2023-04-15T07:42:41.472Z,1678.00
2023-04-15T07:43:40.514Z,1704.00
2023-04-15T07:44:40.550Z,1714.00
2023-04-15T07:45:40.621Z,1744.00
2023-04-15T07:46:40.808Z,1761.00
2023-04-15T07:47:40.770Z,1780.00
2023-04-15T07:48:40.820Z,1804.00
2023-04-15T07:49:40.839Z,1826.00
2023-04-15T07:50:40.906Z,1841.00
2023-04-15T07:51:40.968Z,1853.00
2023-04-15T07:52:41.017Z,1873.00
2023-04-15T07:53:41.088Z,1890.00
2023-04-15T07:54:41.162Z,1905.00
2023-04-15T07:55:41.132Z,1906.00
2023-04-15T07:56:41.124Z,1911.00
2023-04-15T07:57:41.121Z,1922.00
2023-04-15T07:58:41.125Z,1945.00
2023-04-15T07:59:41.118Z,1989.00
2023-04-15T08:00:41.092Z,1998.00
2023-04-15T08:01:41.095Z,2006.00
2023-04-15T08:02:41.322Z,2002.00
2023-04-15T08:03:41.234Z,1976.00
2023-04-15T08:04:41.342Z,1892.00
2023-04-15T08:05:41.190Z,1817.00
2023-04-15T08:06:41.230Z,1610.00
2023-04-15T08:07:41.326Z,1411.00
2023-04-15T08:08:41.341Z,1262.00
2023-04-15T08:09:41.343Z,1094.00
2023-04-15T08:10:41.348Z,920.00
2023-04-15T08:11:41.318Z,813.00
2023-04-15T08:12:41.308Z,704.00
2023-04-15T08:13:41.285Z,638.00
2023-04-15T08:14:41.278Z,591.00
2023-04-15T08:15:41.294Z,565.00
2023-04-15T08:16:41.259Z,543.00
2023-04-15T08:17:41.360Z,558.00
2023-04-15T08:18:41.375Z,585.00
2023-04-15T08:19:41.396Z,602.00
2023-04-15T08:20:41.453Z,631.00
2023-04-15T08:21:41.525Z,644.00
2023-04-15T08:22:41.601Z,680.00
2023-04-15T08:23:41.632Z,721.00
2023-04-15T08:24:41.671Z,772.00
2023-04-15T08:25:41.702Z,821.00
2023-04-15T08:26:41.745Z,875.00
2023-04-15T08:27:41.781Z,919.00
2023-04-15T08:28:41.820Z,947.00
2023-04-15T08:29:41.864Z,1002.00
2023-04-15T08:30:41.888Z,1068.00
2023-04-15T08:31:41.976Z,1100.00
2023-04-15T08:32:42.012Z,1118.00
2023-04-15T08:33:42.021Z,1183.00
2023-04-15T08:34:42.062Z,1227.00
2023-04-15T08:35:42.096Z,1226.00
2023-04-15T08:36:42.119Z,1256.00
2023-04-15T08:37:42.166Z,1290.00
2023-04-15T08:38:42.240Z,1301.00
2023-04-15T08:39:42.245Z,1364.00
2023-04-15T08:40:42.279Z,1405.00
2023-04-15T08:41:42.311Z,1442.00
2023-04-15T08:42:42.957Z,1422.00
2023-04-15T08:43:42.356Z,1474.00
2023-04-15T08:44:42.384Z,1458.00
2023-04-15T08:45:42.439Z,1473.00
2023-04-15T08:46:42.519Z,1530.00
2023-04-15T08:47:42.529Z,1545.00
2023-04-15T08:48:42.478Z,1613.00
2023-04-15T08:49:42.498Z,1639.00
2023-04-15T08:50:42.508Z,1629.00
2023-04-15T08:51:42.534Z,1646.00
2023-04-15T08:52:42.558Z,1658.00
2023-04-15T08:53:42.569Z,1663.00
2023-04-15T08:54:42.555Z,1704.00
2023-04-15T08:55:42.581Z,1725.00
2023-04-15T08:56:42.687Z,1759.00
2023-04-15T08:57:42.609Z,1775.00
2023-04-15T08:58:42.587Z,1783.00
2023-04-15T08:59:42.597Z,1809.00
2023-04-15T09:00:42.620Z,1846.00
2023-04-15T09:01:42.790Z,1851.00
2023-04-15T09:02:42.827Z,1871.00
2023-04-15T09:03:42.744Z,1879.00
2023-04-15T09:04:42.610Z,1902.00
2023-04-15T09:05:42.617Z,1910.00
2023-04-15T09:06:42.607Z,1932.00
2023-04-15T09:07:42.646Z,1941.00
2023-04-15T09:08:42.593Z,1955.00
2023-04-15T09:09:42.599Z,1970.00
2023-04-15T09:10:42.576Z,2000.00
2023-04-15T09:11:42.595Z,2025.00
2023-04-15T09:12:42.563Z,2032.00
2023-04-15T09:13:42.554Z,2027.00
2023-04-15T09:14:42.558Z,2055.00
2023-04-15T09:15:42.520Z,2076.00
2023-04-15T09:16:42.542Z,2097.00
2023-04-15T09:17:42.534Z,2117.00
2023-04-15T09:18:42.489Z,2129.00
2023-04-15T09:19:42.475Z,2145.00
2023-04-15T09:20:42.452Z,2167.00
2023-04-15T09:21:42.427Z,2176.00
2023-04-15T09:22:42.398Z,2194.00
2023-04-15T09:23:42.391Z,2212.00
2023-04-15T09:24:42.397Z,2223.00
2023-04-15T09:25:42.361Z,2249.00
2023-04-15T09:26:42.329Z,2256.00
2023-04-15T09:27:42.322Z,2271.00
2023-04-15T09:28:42.293Z,2293.00
2023-04-15T09:29:42.297Z,2315.00
2023-04-15T09:30:42.282Z,2306.00
2023-04-15T09:31:42.235Z,2322.00
2023-04-15T09:32:42.224Z,2342.00
2023-04-15T09:33:42.194Z,2349.00
2023-04-15T09:34:42.183Z,2370.00
2023-04-15T09:35:42.143Z,2371.00
2023-04-15T09:36:42.138Z,2386.00
2023-04-15T09:37:42.098Z,2406.00
2023-04-15T09:38:42.116Z,2406.00
2023-04-15T09:39:42.079Z,2432.00
2023-04-15T09:40:42.074Z,2440.00
2023-04-15T09:41:42.089Z,2456.00
2023-04-15T09:42:42.083Z,2450.00
2023-04-15T09:43:42.159Z,2463.00
2023-04-15T09:44:42.154Z,2479.00
2023-04-15T09:45:42.182Z,2476.00
2023-04-15T09:46:42.215Z,2486.00
2023-04-15T09:47:42.253Z,2505.00
2023-04-15T09:48:42.294Z,2513.00
2023-04-15T09:49:42.373Z,2506.00
2023-04-15T09:50:42.322Z,2521.00
2023-04-15T09:51:51.187Z,2528.00
2023-04-15T09:52:43.329Z,2530.00
2023-04-15T09:53:42.305Z,2533.00
2023-04-15T09:54:42.288Z,2538.00
2023-04-15T09:55:42.274Z,2545.00
2023-04-15T09:56:42.248Z,2567.00
2023-04-15T09:57:42.243Z,2584.00
2023-04-15T09:58:42.200Z,2586.00
2023-04-15T09:59:42.334Z,2593.00
2023-04-15T10:00:42.142Z,2601.00
2023-04-15T10:01:42.156Z,2601.00
2023-04-15T10:02:42.180Z,2603.00
2023-04-15T10:03:42.152Z,2609.00
2023-04-15T10:04:42.066Z,2611.00
2023-04-15T10:05:42.055Z,2626.00
2023-04-15T10:06:42.006Z,2628.00
2023-04-15T10:07:41.985Z,2628.00
2023-04-15T10:08:41.975Z,2633.00
2023-04-15T10:09:41.945Z,2638.00
2023-04-15T10:10:41.912Z,2648.00
2023-04-15T10:11:41.898Z,2649.00
2023-04-15T10:12:41.872Z,2654.00
2023-04-15T10:13:41.856Z,2653.00
2023-04-15T10:14:41.846Z,2656.00
2023-04-15T10:15:41.810Z,2657.00
2023-04-15T10:16:41.805Z,2658.00
2023-04-15T10:17:41.738Z,2660.00
2023-04-15T10:18:41.721Z,2657.00
2023-04-15T10:19:41.688Z,2663.00
2023-04-15T10:20:41.665Z,2672.00
2023-04-15T10:21:41.631Z,2658.00
2023-04-15T10:22:41.590Z,2666.00
2023-04-15T10:23:41.568Z,2674.00
2023-04-15T10:24:41.550Z,2693.00
2023-04-15T10:25:41.531Z,2692.00
2023-04-15T10:26:41.496Z,2722.00
2023-04-15T10:27:41.467Z,2721.00
2023-04-15T10:28:41.507Z,2724.00
2023-04-15T10:29:41.453Z,2710.00
2023-04-15T10:30:41.462Z,2715.00
2023-04-15T10:31:41.604Z,2709.00
2023-04-15T10:32:41.534Z,2724.00
2023-04-15T10:33:41.488Z,2711.00
2023-04-15T10:34:41.503Z,2712.00
2023-04-15T10:35:41.453Z,2712.00
2023-04-15T10:36:41.411Z,2718.00
2023-04-15T10:37:41.390Z,2717.00
2023-04-15T10:38:41.343Z,2715.00
2023-04-15T10:39:41.332Z,2730.00
2023-04-15T10:40:41.371Z,2723.00
2023-04-15T10:41:41.276Z,2726.00
2023-04-15T10:42:41.299Z,2713.00
2023-04-15T10:43:41.314Z,2720.00
2023-04-15T10:44:41.357Z,2726.00
2023-04-15T10:45:41.385Z,2728.00
2023-04-15T10:46:41.456Z,2718.00
2023-04-15T10:47:41.413Z,2719.00
2023-04-15T10:48:41.359Z,2720.00
2023-04-15T10:49:41.348Z,2724.00
2023-04-15T10:50:41.332Z,2724.00
2023-04-15T10:51:41.286Z,2727.00
2023-04-15T10:52:41.259Z,2738.00
2023-04-15T10:53:41.251Z,2730.00
2023-04-15T10:54:41.219Z,2749.00
2023-04-15T10:55:41.186Z,2732.00
2023-04-15T10:56:41.221Z,2737.00
2023-04-15T10:57:41.254Z,2734.00
2023-04-15T10:58:41.292Z,2741.00
2023-04-15T10:59:41.341Z,2728.00
2023-04-15T11:00:41.373Z,2733.00
2023-04-15T11:01:41.483Z,2738.00
2023-04-15T11:02:41.832Z,2739.00
2023-04-15T11:03:41.579Z,2739.00
2023-04-15T11:04:43.083Z,2740.00
2023-04-15T11:05:41.359Z,2732.00
2023-04-15T11:06:41.336Z,2739.00
2023-04-15T11:07:41.339Z,2743.00
2023-04-15T11:08:41.282Z,2746.00
2023-04-15T11:09:41.256Z,2744.00
2023-04-15T11:10:41.235Z,2761.00
2023-04-15T11:11:41.221Z,2745.00
2023-04-15T11:12:41.300Z,2747.00
2023-04-15T11:13:41.172Z,2746.00
2023-04-15T11:14:41.201Z,2748.00
2023-04-15T11:15:41.263Z,2741.00
2023-04-15T11:16:41.321Z,2742.00
2023-04-15T11:17:41.330Z,2748.00
2023-04-15T11:18:41.332Z,2735.00
2023-04-15T11:19:41.370Z,2735.00
2023-04-15T11:20:41.386Z,2743.00
2023-04-15T11:21:41.411Z,2747.00
2023-04-15T11:22:41.431Z,2739.00
2023-04-15T11:23:41.472Z,2747.00
2023-04-15T11:24:41.518Z,2731.00
2023-04-15T11:25:41.579Z,2736.00
2023-04-15T11:26:41.585Z,2744.00
2023-04-15T11:27:41.581Z,2735.00
2023-04-15T11:28:41.567Z,2734.00
2023-04-15T11:29:41.576Z,2735.00
2023-04-15T11:30:41.583Z,2744.00
2023-04-15T11:31:41.648Z,2734.00
2023-04-15T11:32:41.645Z,2735.00
2023-04-15T11:33:41.595Z,2729.00
2023-04-15T11:34:41.625Z,2742.00
2023-04-15T11:35:41.644Z,2732.00
2023-04-15T11:36:41.665Z,2745.00
2023-04-15T11:37:41.665Z,2733.00
2023-04-15T11:38:41.693Z,2724.00
2023-04-15T11:39:41.694Z,2727.00
2023-04-15T11:40:42.806Z,2726.00
2023-04-15T11:41:41.666Z,2728.00
2023-04-15T11:42:49.511Z,2729.00
2023-04-15T11:43:42.608Z,2730.00
2023-04-15T11:44:41.574Z,2732.00
2023-04-15T11:45:41.583Z,2733.00
2023-04-15T11:46:41.506Z,2737.00
2023-04-15T11:47:41.520Z,2739.00
2023-04-15T11:48:41.484Z,2737.00
2023-04-15T11:49:41.460Z,2743.00
2023-04-15T11:50:41.419Z,2733.00
2023-04-15T11:51:41.385Z,2736.00
2023-04-15T11:52:41.357Z,2737.00
2023-04-15T11:53:41.400Z,2740.00
2023-04-15T11:54:41.317Z,2732.00
2023-04-15T11:55:41.331Z,2718.00
2023-04-15T11:56:41.287Z,2719.00
2023-04-15T11:57:41.252Z,2729.00
2023-04-15T11:58:41.218Z,2727.00
2023-04-15T11:59:45.469Z,2727.00
2023-04-15T12:00:41.178Z,2727.00
2023-04-15T12:01:41.153Z,2727.00
2023-04-15T12:02:41.286Z,2717.00
2023-04-15T12:03:41.396Z,2729.00
2023-04-15T12:04:41.201Z,2737.00
2023-04-15T12:05:41.066Z,2725.00
2023-04-15T12:06:41.029Z,2719.00
2023-04-15T12:07:41.002Z,2722.00
2023-04-15T12:08:40.997Z,2724.00